Time;durP1;ratioP1;P1;durP2;ratioP2;P2;SDS_P1;SDS_P2;PMS_P1;PMS_P2;Temp;Humidity;BMP_temperature;BMP_pressure;BME280_temperature;BME280_humidity;BME280_pressure;Samples;Min_cycle;Max_cycle;Signal;HPM_P1;HPM_P2
2021/03/04 00:00:09;;;;;;;86.63;42.93;;;9.00;99.90;;;;;;5014834;28;20563;-65
2021/03/04 00:02:35;;;;;;;83.77;44.50;;;9.00;99.90;;;;;;5011351;28;20260;-66
2021/03/04 00:05:01;;;;;;;87.57;43.17;;;9.00;99.90;;;;;;5012717;28;20263;-67
2021/03/04 00:07:26;;;;;;;84.87;45.13;;;9.00;99.90;;;;;;5011486;28;20601;-66
2021/03/04 00:09:52;;;;;;;86.63;45.33;;;9.00;99.90;;;;;;5027455;28;20206;-66
2021/03/04 00:12:18;;;;;;;83.67;46.70;;;9.00;99.90;;;;;;5031124;28;20175;-66
2021/03/04 00:14:44;;;;;;;86.20;44.30;;;9.00;99.90;;;;;;5015960;28;20181;-65
2021/03/04 00:17:10;;;;;;;84.33;46.37;;;9.10;99.90;;;;;;5011601;28;20172;-65
2021/03/04 00:19:35;;;;;;;81.27;45.57;;;9.10;99.90;;;;;;5024064;28;20257;-65
2021/03/04 00:22:01;;;;;;;87.00;43.03;;;9.20;99.90;;;;;;5031032;28;20172;-67
2021/03/04 00:24:27;;;;;;;82.87;44.30;;;9.30;99.90;;;;;;5024152;28;20183;-66
2021/03/04 00:26:52;;;;;;;82.93;43.60;;;9.20;99.90;;;;;;5032832;28;20222;-66
2021/03/04 00:29:19;;;;;;;87.13;44.93;;;9.10;99.90;;;;;;5016040;28;20234;-66
2021/03/04 00:31:45;;;;;;;94.67;45.50;;;9.10;99.90;;;;;;5014488;28;20172;-65
2021/03/04 00:34:10;;;;;;;91.00;45.77;;;9.00;99.90;;;;;;5034880;28;20180;-66
2021/03/04 00:36:36;;;;;;;83.67;44.80;;;9.00;99.90;;;;;;5032776;28;20592;-65
2021/03/04 00:39:05;;;;;;;82.00;44.20;;;9.00;99.90;;;;;;5034661;28;20214;-67
2021/03/04 00:41:31;;;;;;;77.50;44.30;;;8.90;99.90;;;;;;5032418;28;20176;-66
2021/03/04 00:43:57;;;;;;;84.57;45.60;;;8.90;99.90;;;;;;5032825;28;20171;-65
2021/03/04 00:46:22;;;;;;;68.63;38.80;;;8.70;99.90;;;;;;5034513;28;20178;-65
2021/03/04 00:48:48;;;;;;;88.30;50.30;;;8.70;99.90;;;;;;5029023;28;20208;-66
2021/03/04 00:51:13;;;;;;;86.40;45.97;;;8.60;99.90;;;;;;5014172;28;20285;-66
2021/03/04 00:53:39;;;;;;;74.43;43.37;;;8.50;99.90;;;;;;5015555;28;20184;-66
2021/03/04 00:56:05;;;;;;;92.80;46.00;;;8.40;99.90;;;;;;5014686;28;20611;-65
2021/03/04 00:58:30;;;;;;;84.97;48.03;;;8.40;99.90;;;;;;5015481;28;20249;-65
2021/03/04 01:00:56;;;;;;;85.53;44.90;;;8.40;99.90;;;;;;5014047;28;20230;-67
2021/03/04 01:03:22;;;;;;;89.80;46.43;;;8.40;99.90;;;;;;5015467;28;20188;-66
2021/03/04 01:05:47;;;;;;;95.63;48.80;;;8.40;99.90;;;;;;5014536;28;20211;-66
2021/03/04 01:08:13;;;;;;;95.37;48.67;;;8.40;99.90;;;;;;5026654;28;20227;-66
2021/03/04 01:10:41;;;;;;;95.07;49.73;;;8.50;99.90;;;;;;5031967;28;20184;-66
2021/03/04 01:13:07;;;;;;;99.10;51.53;;;8.50;99.90;;;;;;5034121;28;20195;-66
2021/03/04 01:15:33;;;;;;;92.97;50.40;;;8.60;99.90;;;;;;5032092;28;20601;-65
2021/03/04 01:18:01;;;;;;;97.57;52.73;;;8.60;99.90;;;;;;5013963;28;20210;-65
2021/03/04 01:20:27;;;;;;;129.07;63.13;;;8.80;99.90;;;;;;5013744;28;20178;-65
2021/03/04 01:22:53;;;;;;;105.97;54.60;;;8.80;99.90;;;;;;5033778;28;20270;-64
2021/03/04 01:25:19;;;;;;;94.23;48.73;;;8.90;99.90;;;;;;5033926;28;20255;-66
2021/03/04 01:27:47;;;;;;;90.77;48.83;;;8.80;99.90;;;;;;5014993;28;20190;-66
2021/03/04 01:30:13;;;;;;;101.07;52.50;;;8.80;99.90;;;;;;5013529;28;20209;-65
2021/03/04 01:32:39;;;;;;;104.13;51.37;;;8.80;99.90;;;;;;5014848;28;20181;-66
2021/03/04 01:35:07;;;;;;;100.67;51.97;;;8.90;99.90;;;;;;5013906;28;20203;-66
2021/03/04 01:37:34;;;;;;;130.77;65.20;;;8.90;99.90;;;;;;5029223;28;20614;-65
2021/03/04 01:39:59;;;;;;;98.10;54.77;;;9.00;99.90;;;;;;5031484;28;20939;-65
2021/03/04 01:42:25;;;;;;;88.60;49.73;;;9.10;99.90;;;;;;5033482;28;20633;-66
2021/03/04 01:44:50;;;;;;;110.93;57.03;;;9.20;99.90;;;;;;5025449;28;20180;-65
2021/03/04 01:47:19;;;;;;;115.47;57.37;;;9.30;99.90;;;;;;5013687;28;20172;-65
2021/03/04 01:49:46;;;;;;;103.30;55.27;;;9.20;99.90;;;;;;5015364;28;20211;-64
2021/03/04 01:52:11;;;;;;;101.93;55.10;;;9.20;99.90;;;;;;5033151;28;20554;-66
2021/03/04 01:54:37;;;;;;;96.63;53.67;;;9.20;99.90;;;;;;5031511;28;20246;-66
2021/03/04 01:57:03;;;;;;;97.87;51.90;;;9.20;99.90;;;;;;5033247;28;20207;-66
2021/03/04 01:59:30;;;;;;;90.80;49.90;;;9.00;99.90;;;;;;5029547;28;20204;-66
2021/03/04 02:02:17;;;;;;;93.93;50.43;;;8.90;99.90;;;;;;5013068;28;20199;-66
2021/03/04 02:04:42;;;;;;;98.87;52.03;;;8.80;99.90;;;;;;5017023;28;20188;-66
2021/03/04 02:07:34;;;;;;;99.60;52.50;;;8.80;99.90;;;;;;5013206;28;20183;-65
2021/03/04 02:10:27;;;;;;;110.33;53.73;;;8.80;99.90;;;;;;5031894;28;20687;-65
2021/03/04 02:13:00;;;;;;;109.03;57.13;;;8.90;99.90;;;;;;5027071;28;20291;-65
2021/03/04 02:15:54;;;;;;;109.07;53.77;;;9.00;99.90;;;;;;5013213;28;20283;-66
2021/03/04 02:18:23;;;;;;;125.90;65.07;;;9.00;99.90;;;;;;4971893;28;20227;-66
2021/03/04 02:21:10;;;;;;;102.53;53.13;;;8.90;99.90;;;;;;5015081;28;20180;-66
2021/03/04 02:24:18;;;;;;;101.37;53.50;;;8.80;99.90;;;;;;5032769;28;20179;-66
2021/03/04 02:26:53;;;;;;;113.57;55.50;;;8.60;99.90;;;;;;5022402;28;20230;-66
2021/03/04 02:29:21;;;;;;;105.67;52.83;;;8.60;99.90;;;;;;5013267;28;20218;-66
2021/03/04 02:31:48;;;;;;;106.07;54.87;;;8.50;99.90;;;;;;5020612;28;20183;-66
2021/03/04 02:34:16;;;;;;;112.33;58.10;;;8.50;99.90;;;;;;5031931;28;20668;-66
2021/03/04 02:36:45;;;;;;;119.20;60.47;;;8.40;99.90;;;;;;5023190;28;20184;-66
2021/03/04 02:39:12;;;;;;;107.90;54.50;;;8.40;99.90;;;;;;5020898;28;20203;-66
2021/03/04 02:41:39;;;;;;;112.67;53.10;;;8.30;99.90;;;;;;5030221;28;20219;-64
2021/03/04 02:44:08;;;;;;;116.53;55.30;;;8.30;99.90;;;;;;5032452;28;20203;-66
2021/03/04 02:46:35;;;;;;;121.03;57.03;;;8.20;99.90;;;;;;5025331;28;20176;-66
2021/03/04 02:49:02;;;;;;;119.93;55.47;;;8.20;99.90;;;;;;5020728;28;20298;-66
2021/03/04 02:51:29;;;;;;;123.93;54.97;;;8.20;99.90;;;;;;5030042;28;20285;-64
2021/03/04 02:53:56;;;;;;;113.83;55.97;;;8.10;99.90;;;;;;5031976;28;20214;-66
2021/03/04 02:56:23;;;;;;;117.17;57.57;;;8.00;99.90;;;;;;5028635;28;20184;-65
2021/03/04 02:58:51;;;;;;;119.90;56.87;;;8.10;99.90;;;;;;5011432;28;20686;-66
2021/03/04 03:01:19;;;;;;;123.50;57.77;;;8.10;99.90;;;;;;5030379;28;20180;-66
2021/03/04 03:03:46;;;;;;;117.23;56.27;;;8.10;99.90;;;;;;5001603;28;20278;-66
2021/03/04 03:06:12;;;;;;;130.30;60.93;;;8.10;99.90;;;;;;5031922;28;20172;-66
2021/03/04 03:08:38;;;;;;;118.90;58.17;;;8.10;99.90;;;;;;5014742;28;20212;-66
2021/03/04 03:11:04;;;;;;;132.53;56.40;;;8.10;99.90;;;;;;5011600;28;20187;-66
2021/03/04 03:13:32;;;;;;;121.97;58.67;;;8.10;99.90;;;;;;5013217;28;20172;-65
2021/03/04 03:15:57;;;;;;;118.40;57.57;;;8.10;99.90;;;;;;5011789;28;20271;-66
2021/03/04 03:18:23;;;;;;;117.23;56.10;;;8.20;99.90;;;;;;5013098;28;20298;-66
2021/03/04 03:20:49;;;;;;;130.80;58.67;;;8.20;99.90;;;;;;5011262;28;20195;-65
2021/03/04 03:23:14;;;;;;;103.53;51.77;;;8.00;99.90;;;;;;5019372;28;20258;-64
2021/03/04 03:25:40;;;;;;;127.50;55.50;;;8.00;99.90;;;;;;5031479;28;20172;-66
2021/03/04 03:28:05;;;;;;;113.87;56.03;;;7.90;99.90;;;;;;5021499;28;20183;-66
2021/03/04 03:30:32;;;;;;;112.10;55.00;;;7.80;99.90;;;;;;5011640;28;20187;-66
2021/03/04 03:33:01;;;;;;;116.20;53.50;;;7.80;99.90;;;;;;5011643;28;20176;-66
2021/03/04 03:35:28;;;;;;;122.03;53.80;;;7.70;99.90;;;;;;5013727;28;20341;-66
2021/03/04 03:38:00;;;;;;;124.30;55.77;;;7.70;99.90;;;;;;5031450;28;20673;-66
2021/03/04 03:40:26;;;;;;;117.87;53.07;;;7.60;99.90;;;;;;5029731;28;20213;-66
2021/03/04 03:42:54;;;;;;;119.97;56.27;;;7.50;99.90;;;;;;5011393;28;20175;-66
2021/03/04 03:45:26;;;;;;;129.63;60.27;;;7.50;99.90;;;;;;5012039;28;20227;-65
2021/03/04 03:47:52;;;;;;;137.97;60.93;;;7.40;99.90;;;;;;5030877;28;20195;-65
2021/03/04 03:50:18;;;;;;;139.77;60.00;;;7.50;99.90;;;;;;5031295;28;20183;-66
2021/03/04 03:52:45;;;;;;;133.00;62.63;;;7.50;99.90;;;;;;5011540;28;20275;-66
2021/03/04 03:55:13;;;;;;;128.57;61.17;;;7.60;99.90;;;;;;5011682;28;20172;-66
2021/03/04 03:57:41;;;;;;;130.47;61.40;;;7.70;99.90;;;;;;5029463;28;20186;-66
2021/03/04 04:00:07;;;;;;;130.17;62.00;;;7.70;99.90;;;;;;5032826;28;20199;-66
2021/03/04 04:02:34;;;;;;;145.60;61.63;;;7.80;99.90;;;;;;5035164;28;20171;-66
2021/03/04 04:05:01;;;;;;;131.77;60.73;;;8.00;99.90;;;;;;5022364;28;20187;-66
2021/03/04 04:07:28;;;;;;;118.43;56.77;;;8.10;99.90;;;;;;5015549;28;20544;-66
2021/03/04 04:09:55;;;;;;;122.87;57.73;;;8.10;99.90;;;;;;5026559;28;20334;-66
2021/03/04 04:12:20;;;;;;;126.87;60.70;;;8.10;99.90;;;;;;5034782;28;20175;-66
2021/03/04 04:14:46;;;;;;;118.00;56.83;;;8.10;99.90;;;;;;5023855;28;20194;-66
2021/03/04 04:17:12;;;;;;;126.23;61.47;;;8.10;99.90;;;;;;5030125;28;20187;-64
2021/03/04 04:19:38;;;;;;;116.60;58.30;;;8.20;99.90;;;;;;5032751;28;20211;-66
2021/03/04 04:22:05;;;;;;;122.30;57.70;;;8.20;99.90;;;;;;5034526;28;20263;-65
2021/03/04 04:24:31;;;;;;;113.70;57.20;;;8.30;99.90;;;;;;5027176;28;20176;-65
2021/03/04 04:26:56;;;;;;;112.33;56.80;;;8.40;99.90;;;;;;5015439;28;20239;-67
2021/03/04 04:29:23;;;;;;;118.20;57.73;;;8.50;99.90;;;;;;5015030;28;20216;-63
2021/03/04 04:31:48;;;;;;;121.17;57.37;;;8.40;99.90;;;;;;5013595;28;20613;-65
2021/03/04 04:34:14;;;;;;;117.13;55.53;;;8.40;99.90;;;;;;5033750;28;20217;-67
2021/03/04 04:36:39;;;;;;;112.87;57.40;;;8.40;99.90;;;;;;5034303;28;20175;-67
2021/03/04 04:39:05;;;;;;;129.27;61.47;;;8.50;99.90;;;;;;5032809;28;20207;-67
2021/03/04 04:41:32;;;;;;;124.70;59.80;;;8.50;99.90;;;;;;5034154;28;20182;-65
2021/03/04 04:43:58;;;;;;;115.30;58.90;;;8.50;99.90;;;;;;5018281;28;20267;-66
2021/03/04 04:46:23;;;;;;;122.13;57.97;;;8.50;99.90;;;;;;5014732;28;20242;-66
2021/03/04 04:48:49;;;;;;;123.57;59.07;;;8.50;99.90;;;;;;5028097;28;20324;-66
2021/03/04 04:51:14;;;;;;;117.97;56.63;;;8.50;99.90;;;;;;5033549;28;20645;-65
2021/03/04 04:53:41;;;;;;;123.60;57.47;;;8.50;99.90;;;;;;5032343;28;20195;-65
2021/03/04 04:56:07;;;;;;;110.87;54.40;;;8.60;99.90;;;;;;5032380;28;20171;-65
2021/03/04 04:58:33;;;;;;;116.73;54.73;;;8.60;99.90;;;;;;5033899;28;20212;-66
2021/03/04 05:00:59;;;;;;;111.10;55.53;;;8.70;99.90;;;;;;5029254;28;20203;-65
2021/03/04 05:03:25;;;;;;;105.43;53.07;;;8.70;99.90;;;;;;5014877;28;20208;-65
2021/03/04 05:05:50;;;;;;;117.10;54.60;;;8.70;99.90;;;;;;5013613;28;20246;-66
2021/03/04 05:08:16;;;;;;;105.90;51.57;;;8.80;99.90;;;;;;5014324;28;20203;-65
2021/03/04 05:10:42;;;;;;;109.00;53.37;;;8.80;99.90;;;;;;5014090;28;20642;-65
2021/03/04 05:13:08;;;;;;;106.93;54.67;;;8.80;99.90;;;;;;5025024;28;20266;-66
2021/03/04 05:15:33;;;;;;;112.73;54.37;;;8.80;99.90;;;;;;5033601;28;20649;-65
2021/03/04 05:17:59;;;;;;;109.83;54.03;;;8.80;99.90;;;;;;5026743;28;20581;-66
2021/03/04 05:20:25;;;;;;;99.43;53.87;;;8.90;99.90;;;;;;5033307;28;20182;-66
2021/03/04 05:22:50;;;;;;;95.93;50.13;;;8.70;99.90;;;;;;5017858;28;20196;-65
2021/03/04 05:25:16;;;;;;;109.50;55.67;;;8.80;99.90;;;;;;5013745;28;20660;-65
2021/03/04 05:27:42;;;;;;;108.50;54.20;;;8.80;99.90;;;;;;5027198;28;20229;-64
2021/03/04 05:30:08;;;;;;;110.13;55.70;;;8.80;99.90;;;;;;5032219;28;20214;-65
2021/03/04 05:32:34;;;;;;;108.37;55.00;;;8.80;99.90;;;;;;5032764;28;20194;-65
2021/03/04 05:35:00;;;;;;;120.33;57.13;;;8.80;99.90;;;;;;5033209;28;20168;-66
2021/03/04 05:37:25;;;;;;;118.83;56.33;;;8.90;99.90;;;;;;5013998;28;20443;-65
2021/03/04 05:39:51;;;;;;;107.17;55.80;;;8.90;99.90;;;;;;5013158;28;20216;-66
2021/03/04 05:42:18;;;;;;;108.73;52.97;;;8.90;99.90;;;;;;5030607;28;20641;-66
2021/03/04 05:44:44;;;;;;;117.17;56.27;;;8.80;99.90;;;;;;5033093;28;20175;-65
2021/03/04 05:47:10;;;;;;;107.90;56.73;;;8.80;99.90;;;;;;5017134;28;20169;-65
2021/03/04 05:49:50;;;;;;;104.63;53.67;;;8.90;99.90;;;;;;5013339;28;20203;-66
2021/03/04 05:52:17;;;;;;;106.90;52.40;;;8.90;99.90;;;;;;5014074;28;20176;-66
2021/03/04 05:54:45;;;;;;;104.43;54.67;;;8.90;99.90;;;;;;5012759;28;20184;-65
2021/03/04 05:57:12;;;;;;;113.93;56.47;;;8.80;99.90;;;;;;5024115;28;20188;-66
2021/03/04 05:59:40;;;;;;;120.73;59.30;;;8.80;99.90;;;;;;5024280;28;20228;-67
2021/03/04 06:02:07;;;;;;;127.43;59.40;;;8.70;99.90;;;;;;5012982;28;20540;-66
2021/03/04 06:04:33;;;;;;;125.80;64.53;;;8.60;99.90;;;;;;5019970;28;20175;-63
2021/03/04 06:06:59;;;;;;;133.70;67.27;;;8.60;99.90;;;;;;5033051;28;20176;-64
2021/03/04 06:09:27;;;;;;;138.27;64.87;;;8.40;99.90;;;;;;5027004;28;20226;-66
2021/03/04 06:11:59;;;;;;;128.20;60.63;;;8.30;99.90;;;;;;5012266;28;20211;-66
2021/03/04 06:14:25;;;;;;;110.87;52.13;;;8.20;99.90;;;;;;5017658;28;20586;-64
2021/03/04 06:16:51;;;;;;;131.67;65.10;;;7.90;99.90;;;;;;5032528;28;20548;-66
2021/03/04 06:19:18;;;;;;;150.63;70.63;;;7.70;99.90;;;;;;5032634;28;20218;-66
2021/03/04 06:21:44;;;;;;;148.67;68.97;;;7.70;99.90;;;;;;5033638;28;20179;-66
2021/03/04 06:24:14;;;;;;;133.37;64.90;;;7.60;99.90;;;;;;5032442;28;20175;-66
2021/03/04 06:26:39;;;;;;;132.43;67.40;;;7.50;99.90;;;;;;5034577;28;20179;-64
2021/03/04 06:29:13;;;;;;;148.13;70.53;;;7.50;99.90;;;;;;5033298;28;20211;-66
2021/03/04 06:31:39;;;;;;;143.53;72.57;;;7.40;99.90;;;;;;5034245;28;20168;-65
2021/03/04 06:34:18;;;;;;;150.30;69.37;;;7.50;99.90;;;;;;5033089;28;20263;-66
2021/03/04 06:36:59;;;;;;;139.33;62.47;;;7.50;99.90;;;;;;5033809;28;20234;-66
2021/03/04 06:39:26;;;;;;;135.83;62.10;;;7.50;99.90;;;;;;5014753;28;20571;-66
2021/03/04 06:42:04;;;;;;;135.90;59.80;;;7.40;99.90;;;;;;5016660;28;20176;-66
2021/03/04 06:44:43;;;;;;;142.23;61.83;;;7.40;99.90;;;;;;5014570;28;20259;-65
2021/03/04 06:47:11;;;;;;;132.60;56.73;;;7.40;99.90;;;;;;5028919;28;20190;-66
2021/03/04 06:49:40;;;;;;;114.77;51.37;;;7.40;99.90;;;;;;5035016;28;20199;-66
2021/03/04 06:52:07;;;;;;;128.90;56.03;;;7.30;99.90;;;;;;5021199;28;20461;-67
2021/03/04 06:54:33;;;;;;;118.77;53.70;;;7.20;99.90;;;;;;5016965;28;20179;-66
2021/03/04 06:57:12;;;;;;;128.30;54.47;;;7.70;99.90;;;;;;5019980;28;20545;-66
2021/03/04 06:59:42;;;;;;;116.57;50.97;;;7.10;99.90;;;;;;5020717;28;20684;-65
2021/03/04 07:02:09;;;;;;;107.17;48.67;;;7.10;99.90;;;;;;5031631;28;20235;-67
2021/03/04 07:04:34;;;;;;;105.30;43.57;;;7.50;99.90;;;;;;5010604;28;20630;-65
2021/03/04 07:07:01;;;;;;;109.10;47.03;;;7.30;99.90;;;;;;5016388;28;20186;-68
2021/03/04 07:09:28;;;;;;;114.67;48.60;;;6.90;99.90;;;;;;5006713;28;20708;-66
2021/03/04 07:11:54;;;;;;;109.07;46.70;;;7.00;99.90;;;;;;5035667;28;20221;-67
2021/03/04 07:14:21;;;;;;;110.37;45.43;;;7.70;99.90;;;;;;5032290;28;20172;-67
2021/03/04 07:16:47;;;;;;;113.97;44.70;;;7.60;99.90;;;;;;5035464;28;20180;-66
2021/03/04 07:19:16;;;;;;;106.10;43.60;;;7.10;99.90;;;;;;5018936;28;20214;-67
2021/03/04 07:21:45;;;;;;;108.73;43.30;;;7.00;99.90;;;;;;5036351;28;20254;-67
2021/03/04 07:24:11;;;;;;;108.73;43.07;;;7.10;99.90;;;;;;5015905;28;20187;-66
2021/03/04 07:26:37;;;;;;;109.77;45.43;;;7.00;99.90;;;;;;5016281;28;20271;-65
2021/03/04 07:29:10;;;;;;;124.33;45.40;;;6.90;99.90;;;;;;5034499;28;20258;-67
2021/03/04 07:31:42;;;;;;;115.03;43.97;;;6.90;99.90;;;;;;5035387;28;20214;-67
2021/03/04 07:34:16;;;;;;;122.43;47.23;;;7.00;99.90;;;;;;5032583;28;20183;-67
2021/03/04 07:36:45;;;;;;;123.63;47.47;;;7.00;99.90;;;;;;5026455;28;20196;-66
2021/03/04 07:39:10;;;;;;;120.93;46.70;;;7.00;99.90;;;;;;5013855;28;20203;-67
2021/03/04 07:41:38;;;;;;;142.83;47.70;;;7.00;99.90;;;;;;5014984;28;20227;-67
2021/03/04 07:44:04;;;;;;;126.60;46.77;;;7.00;99.90;;;;;;5029280;28;20211;-66
2021/03/04 07:46:52;;;;;;;131.40;47.07;;;7.10;99.90;;;;;;5015567;28;20168;-67
2021/03/04 07:49:34;;;;;;;119.60;44.40;;;7.30;99.90;;;;;;5022434;28;20202;-64
2021/03/04 07:52:18;;;;;;;146.20;51.40;;;7.40;99.90;;;;;;5028275;28;20198;-67
2021/03/04 07:54:47;;;;;;;141.60;48.27;;;7.50;99.90;;;;;;5033291;28;20270;-65
2021/03/04 07:57:15;;;;;;;132.93;48.07;;;7.50;99.90;;;;;;5016376;28;20265;-68
2021/03/04 07:59:53;;;;;;;140.47;48.90;;;7.50;99.90;;;;;;5014129;28;20297;-67
2021/03/04 08:02:30;;;;;;;133.07;47.37;;;7.60;99.90;;;;;;5033533;28;20178;-67
2021/03/04 08:05:10;;;;;;;136.60;47.83;;;7.70;99.90;;;;;;5020035;28;20269;-68
2021/03/04 08:07:36;;;;;;;119.00;45.43;;;7.80;99.90;;;;;;5015375;28;20544;-66
2021/03/04 08:10:28;;;;;;;137.93;50.93;;;7.80;99.90;;;;;;5012431;28;20196;-67
2021/03/04 08:13:00;;;;;;;134.97;48.43;;;8.00;99.90;;;;;;5016945;28;20195;-67
2021/03/04 08:15:43;;;;;;;136.50;47.17;;;8.00;99.90;;;;;;5032184;28;20171;-67
2021/03/04 08:18:36;;;;;;;122.23;47.30;;;7.90;99.90;;;;;;5020614;28;20242;-67
2021/03/04 08:21:04;;;;;;;134.23;46.63;;;7.90;99.90;;;;;;5007242;28;20192;-66
2021/03/04 08:23:30;;;;;;;140.93;49.10;;;7.80;99.90;;;;;;5024662;28;20172;-67
2021/03/04 08:25:56;;;;;;;138.37;48.87;;;7.80;99.90;;;;;;5031697;28;20176;-66
2021/03/04 08:28:27;;;;;;;128.23;46.93;;;8.00;99.90;;;;;;5026794;28;20219;-64
2021/03/04 08:30:52;;;;;;;115.73;45.70;;;8.00;99.90;;;;;;5012433;28;20180;-65
2021/03/04 08:33:18;;;;;;;120.13;44.67;;;7.90;99.90;;;;;;5025882;28;20262;-65
2021/03/04 08:35:46;;;;;;;129.47;47.47;;;7.90;99.90;;;;;;5030725;28;20517;-65
2021/03/04 08:38:18;;;;;;;131.70;47.93;;;7.90;99.90;;;;;;5030740;28;20214;-64
2021/03/04 08:40:47;;;;;;;128.97;47.97;;;7.90;99.90;;;;;;5030324;28;20629;-65
2021/03/04 08:43:15;;;;;;;134.70;48.03;;;8.00;99.90;;;;;;5030812;28;20258;-65
2021/03/04 08:45:41;;;;;;;120.17;47.60;;;8.00;99.90;;;;;;5033083;28;20168;-64
2021/03/04 08:48:10;;;;;;;120.40;46.63;;;8.20;99.90;;;;;;5034402;28;20207;-65
2021/03/04 08:50:38;;;;;;;130.93;47.00;;;8.40;99.90;;;;;;5033777;28;20171;-65
2021/03/04 08:53:09;;;;;;;128.07;46.57;;;8.50;99.90;;;;;;5034221;28;20190;-65
2021/03/04 08:55:46;;;;;;;119.63;46.53;;;8.60;99.90;;;;;;5034017;28;20262;-65
2021/03/04 08:58:12;;;;;;;103.73;41.60;;;8.50;99.90;;;;;;5034036;28;20627;-65
2021/03/04 09:00:38;;;;;;;99.90;41.13;;;8.50;99.90;;;;;;5034107;28;20225;-65
2021/03/04 09:03:10;;;;;;;98.53;40.43;;;8.60;99.90;;;;;;5034598;28;20176;-65
2021/03/04 09:05:40;;;;;;;92.23;38.60;;;8.60;99.90;;;;;;5031888;28;20183;-65
2021/03/04 09:08:07;;;;;;;84.23;39.37;;;8.60;99.90;;;;;;5026219;28;20186;-65
2021/03/04 09:10:50;;;;;;;95.13;40.63;;;8.50;99.90;;;;;;5014174;28;20177;-65
2021/03/04 09:13:27;;;;;;;82.33;38.73;;;8.60;99.90;;;;;;5019017;28;20530;-65
2021/03/04 09:15:58;;;;;;;91.40;40.10;;;8.80;99.90;;;;;;5033805;28;20201;-66
2021/03/04 09:18:25;;;;;;;87.83;39.27;;;8.90;99.90;;;;;;5028730;28;20266;-66
2021/03/04 09:20:52;;;;;;;75.37;35.93;;;9.10;99.90;;;;;;5014660;28;20172;-67
2021/03/04 09:23:18;;;;;;;60.87;31.73;;;9.20;99.90;;;;;;5016215;28;20182;-66
2021/03/04 09:25:45;;;;;;;67.10;33.73;;;9.30;99.90;;;;;;4997141;28;20172;-65
2021/03/04 09:28:18;;;;;;;55.97;29.50;;;9.30;99.90;;;;;;5015739;28;20237;-65
2021/03/04 09:30:46;;;;;;;56.43;31.83;;;9.40;99.90;;;;;;5014579;28;20215;-67
2021/03/04 09:33:22;;;;;;;49.17;26.60;;;9.70;99.90;;;;;;5016500;28;20187;-67
2021/03/04 09:36:00;;;;;;;45.70;26.37;;;9.80;99.90;;;;;;5015487;28;20179;-67
2021/03/04 09:38:28;;;;;;;33.43;20.33;;;10.10;99.90;;;;;;5016485;28;20582;-68
2021/03/04 09:40:55;;;;;;;30.47;19.00;;;10.60;99.90;;;;;;5014723;28;20176;-66
2021/03/04 09:43:22;;;;;;;29.53;18.90;;;10.70;99.90;;;;;;4997673;28;20176;-67
2021/03/04 09:45:50;;;;;;;31.87;19.10;;;10.80;99.90;;;;;;5013653;28;20316;-65
2021/03/04 09:48:38;;;;;;;33.83;20.03;;;10.70;99.90;;;;;;5014460;28;20538;-66
2021/03/04 09:51:04;;;;;;;33.77;19.93;;;10.80;99.90;;;;;;5013278;28;20188;-68
2021/03/04 09:53:30;;;;;;;33.20;20.33;;;10.80;99.90;;;;;;5015835;28;20255;-67
2021/03/04 09:55:55;;;;;;;35.93;20.57;;;10.60;99.90;;;;;;5014458;28;20230;-66
2021/03/04 09:58:24;;;;;;;37.03;22.07;;;10.50;99.90;;;;;;5031059;28;20605;-67
2021/03/04 10:00:57;;;;;;;31.23;19.33;;;10.30;99.90;;;;;;5032366;28;20183;-66
2021/03/04 10:03:40;;;;;;;30.03;18.23;;;10.20;99.90;;;;;;5014671;28;20614;-66
2021/03/04 10:06:20;;;;;;;27.67;19.27;;;10.00;99.90;;;;;;5013328;28;20183;-66
2021/03/04 10:08:45;;;;;;;27.30;18.07;;;9.70;99.90;;;;;;5012752;28;20203;-66
2021/03/04 10:11:23;;;;;;;32.13;19.27;;;9.50;99.90;;;;;;5012432;28;20235;-66
2021/03/04 10:13:50;;;;;;;34.07;21.00;;;9.50;99.90;;;;;;5012886;28;20187;-66
2021/03/04 10:16:15;;;;;;;30.13;18.27;;;9.40;99.90;;;;;;5013016;28;20180;-67
2021/03/04 10:18:45;;;;;;;29.37;17.57;;;9.30;99.90;;;;;;5031421;28;20286;-66
2021/03/04 10:21:15;;;;;;;32.83;19.73;;;9.30;99.90;;;;;;5032174;28;20179;-66
2021/03/04 10:23:41;;;;;;;31.00;19.10;;;9.30;99.90;;;;;;5013844;28;20238;-66
2021/03/04 10:26:06;;;;;;;28.87;18.87;;;9.40;99.90;;;;;;5012854;28;20180;-64
2021/03/04 10:28:32;;;;;;;31.57;18.77;;;9.40;99.90;;;;;;5014402;28;20796;-65
2021/03/04 10:30:58;;;;;;;25.60;15.93;;;9.40;99.90;;;;;;5012585;28;20183;-67
2021/03/04 10:33:23;;;;;;;22.50;15.00;;;9.30;99.90;;;;;;5027841;28;20271;-67
2021/03/04 10:35:49;;;;;;;20.93;13.87;;;9.20;99.90;;;;;;5014632;28;20257;-65
2021/03/04 10:38:15;;;;;;;19.17;13.20;;;9.00;99.90;;;;;;5019235;28;20211;-66
2021/03/04 10:40:40;;;;;;;16.93;11.93;;;8.90;99.90;;;;;;5018321;28;20184;-65
2021/03/04 10:43:06;;;;;;;17.00;12.93;;;8.80;99.90;;;;;;5032503;28;20629;-65
2021/03/04 10:45:32;;;;;;;18.13;13.77;;;8.70;99.90;;;;;;5027757;28;20257;-64
2021/03/04 10:47:57;;;;;;;18.33;13.90;;;8.70;99.90;;;;;;5031093;28;20186;-65
2021/03/04 10:50:24;;;;;;;18.43;12.93;;;8.70;99.90;;;;;;5031921;28;20163;-65
2021/03/04 10:52:49;;;;;;;19.07;14.17;;;8.60;99.90;;;;;;5031277;28;20182;-64
2021/03/04 10:55:16;;;;;;;18.07;13.40;;;8.50;99.90;;;;;;5032045;28;20175;-63
2021/03/04 10:57:43;;;;;;;18.63;13.23;;;8.50;99.90;;;;;;5032005;28;20199;-65
2021/03/04 11:00:10;;;;;;;20.17;13.23;;;8.60;99.90;;;;;;5031732;28;20199;-65
2021/03/04 11:02:36;;;;;;;21.07;14.33;;;8.60;99.90;;;;;;5032115;28;20167;-65
2021/03/04 11:05:03;;;;;;;19.77;13.73;;;8.70;99.90;;;;;;5031757;28;20172;-64
2021/03/04 11:07:29;;;;;;;20.07;13.83;;;8.60;99.90;;;;;;5012788;28;20186;-65
2021/03/04 11:09:55;;;;;;;20.80;13.67;;;8.60;99.90;;;;;;5031413;28;20203;-64
2021/03/04 11:12:20;;;;;;;19.53;13.70;;;8.60;99.90;;;;;;4999078;28;20191;-64
2021/03/04 11:14:46;;;;;;;20.67;13.80;;;8.60;99.90;;;;;;5012266;28;20184;-65
2021/03/04 11:17:12;;;;;;;21.10;14.37;;;8.60;99.90;;;;;;5013154;28;20184;-64
2021/03/04 11:19:38;;;;;;;24.87;15.50;;;8.50;99.90;;;;;;5011726;28;20208;-63
2021/03/04 11:22:04;;;;;;;23.53;16.80;;;8.40;99.90;;;;;;5011542;28;20230;-65
2021/03/04 11:24:29;;;;;;;27.67;17.13;;;8.30;99.90;;;;;;5011882;28;20221;-65
2021/03/04 11:26:55;;;;;;;26.67;17.07;;;8.20;99.90;;;;;;5011844;28;20172;-65
2021/03/04 11:29:20;;;;;;;30.40;18.33;;;8.20;99.90;;;;;;5011532;28;20682;-65
2021/03/04 11:31:46;;;;;;;32.67;17.87;;;8.20;99.90;;;;;;5011409;28;20191;-65
2021/03/04 11:34:12;;;;;;;29.20;18.30;;;8.30;99.90;;;;;;5011578;28;20536;-65
2021/03/04 11:36:37;;;;;;;32.43;18.83;;;8.40;99.90;;;;;;5011851;28;20172;-65
2021/03/04 11:39:04;;;;;;;33.20;20.57;;;8.30;99.90;;;;;;5011138;28;20208;-64
2021/03/04 11:41:29;;;;;;;37.37;20.17;;;8.10;99.90;;;;;;4993905;28;20259;-65
2021/03/04 11:43:55;;;;;;;43.23;22.90;;;8.20;99.90;;;;;;5011542;28;20231;-65
2021/03/04 11:46:21;;;;;;;34.17;21.77;;;8.20;99.90;;;;;;5012019;28;20183;-65
2021/03/04 11:48:48;;;;;;;41.70;22.90;;;8.10;99.90;;;;;;5011354;28;20196;-65
2021/03/04 11:51:14;;;;;;;43.87;23.77;;;8.00;99.90;;;;;;5011001;28;20179;-64
2021/03/04 11:53:40;;;;;;;53.77;25.27;;;7.90;99.90;;;;;;5011519;28;20172;-65
2021/03/04 11:56:06;;;;;;;54.30;25.70;;;7.70;99.90;;;;;;5011836;28;20254;-65
2021/03/04 11:58:32;;;;;;;46.37;25.43;;;7.70;99.90;;;;;;5011290;28;20243;-65
2021/03/04 12:00:58;;;;;;;48.70;25.27;;;7.60;99.90;;;;;;5010730;28;20180;-65
2021/03/04 12:03:23;;;;;;;42.47;22.10;;;7.50;99.90;;;;;;5024740;28;20679;-65
2021/03/04 12:05:49;;;;;;;44.93;24.47;;;7.40;99.90;;;;;;5014507;28;20270;-65
2021/03/04 12:08:15;;;;;;;31.53;19.23;;;7.40;99.90;;;;;;5023252;28;20239;-64
2021/03/04 12:10:41;;;;;;;34.70;17.30;;;7.30;99.90;;;;;;5030520;28;20539;-65
2021/03/04 12:13:08;;;;;;;28.43;16.70;;;7.30;99.90;;;;;;5019987;28;20592;-65
2021/03/04 12:15:34;;;;;;;24.80;14.40;;;7.30;99.90;;;;;;5010414;28;20549;-65
2021/03/04 12:18:00;;;;;;;32.10;14.93;;;7.20;99.90;;;;;;5019722;28;20176;-65
2021/03/04 12:20:25;;;;;;;23.57;15.10;;;7.20;99.90;;;;;;5032658;28;20174;-65
2021/03/04 12:22:51;;;;;;;26.77;15.63;;;7.10;99.90;;;;;;5032962;28;20187;-65
2021/03/04 12:25:17;;;;;;;20.13;13.17;;;6.90;99.90;;;;;;5034846;28;20183;-65
2021/03/04 12:27:43;;;;;;;23.70;14.27;;;6.90;99.90;;;;;;5033096;28;20656;-65
2021/03/04 12:30:10;;;;;;;21.80;14.77;;;6.90;99.90;;;;;;5034471;28;20237;-65
2021/03/04 12:32:36;;;;;;;22.53;14.63;;;7.00;99.90;;;;;;5018977;28;20180;-65
2021/03/04 12:35:02;;;;;;;25.40;14.67;;;7.00;99.90;;;;;;5014740;28;20172;-65